createdAt,value
2023-04-27T04:41:02.784Z,11.39
2023-04-27T04:43:32.039Z,11.41
2023-04-27T04:46:01.737Z,11.42
2023-04-27T04:48:29.298Z,11.43
2023-04-27T04:50:57.225Z,11.43
2023-04-27T04:53:24.286Z,11.43
2023-04-27T04:55:51.181Z,11.44
2023-04-27T04:58:18.415Z,11.47
2023-04-27T05:00:45.357Z,11.49
2023-04-27T05:03:12.395Z,11.52
2023-04-27T05:05:39.521Z,11.57
2023-04-27T05:08:06.420Z,11.60
2023-04-27T05:10:33.388Z,11.64
2023-04-27T05:13:00.419Z,11.68
2023-04-27T05:15:27.417Z,11.72
2023-04-27T05:17:54.515Z,11.77
2023-04-27T05:20:21.748Z,11.80
2023-04-27T05:22:50.899Z,11.83
2023-04-27T05:25:18.590Z,11.84
2023-04-27T05:27:45.681Z,11.86
2023-04-27T05:30:13.472Z,11.89
2023-04-27T05:32:40.514Z,11.93
2023-04-27T05:35:14.169Z,11.97
2023-04-27T05:37:41.515Z,11.99
2023-04-27T05:40:17.112Z,12.01
2023-04-27T05:42:46.611Z,12.02
2023-04-27T05:45:57.452Z,12.04
2023-04-27T05:49:23.656Z,12.07
2023-04-27T05:52:38.258Z,12.08
2023-04-27T05:55:13.595Z,12.15
2023-04-27T05:57:57.137Z,12.19
2023-04-27T06:00:33.553Z,12.23
2023-04-27T06:03:09.868Z,12.27
2023-04-27T06:05:57.495Z,12.32
2023-04-27T06:09:03.877Z,12.39
2023-04-27T06:11:36.826Z,12.49
2023-04-27T06:14:07.566Z,12.57
2023-04-27T06:16:35.265Z,12.64
2023-04-27T06:35:32.984Z,12.89
2023-04-27T06:38:32.026Z,12.96
2023-04-27T06:41:00.598Z,12.99
2023-04-27T06:43:27.544Z,12.99
2023-04-27T06:45:55.003Z,13.01
2023-04-27T06:48:22.199Z,13.02
2023-04-27T06:50:52.175Z,13.07
2023-04-27T06:53:20.661Z,13.14
2023-04-27T06:55:48.732Z,13.25
2023-04-27T06:58:15.803Z,13.38
2023-04-27T07:00:42.717Z,13.49
2023-04-27T07:03:10.530Z,13.61
2023-04-27T07:05:38.991Z,13.74
2023-04-27T07:08:08.599Z,13.86
2023-04-27T07:10:36.343Z,13.92
2023-04-27T07:13:03.344Z,13.95
2023-04-27T07:15:33.343Z,13.95
2023-04-27T07:18:00.305Z,13.94
2023-04-27T07:20:27.307Z,13.87
2023-04-27T07:22:54.231Z,13.75
2023-04-27T07:25:21.653Z,13.55
2023-04-27T07:27:48.627Z,13.35
2023-04-27T07:30:36.584Z,13.13
2023-04-27T07:33:03.797Z,12.85
2023-04-27T07:35:30.760Z,12.61
2023-04-27T07:38:03.714Z,12.38
2023-04-27T07:40:30.924Z,12.17
2023-04-27T07:42:58.405Z,11.96
2023-04-27T07:45:34.775Z,11.78
2023-04-27T07:48:02.795Z,11.64
2023-04-27T07:50:30.297Z,11.54
2023-04-27T07:52:57.424Z,11.47
2023-04-27T07:55:25.268Z,11.39
2023-04-27T07:57:56.441Z,11.28
2023-04-27T08:00:24.066Z,11.14
2023-04-27T08:02:54.617Z,11.00
2023-04-27T08:05:31.600Z,10.84
2023-04-27T08:08:11.396Z,10.72
2023-04-27T08:10:39.807Z,10.65
2023-04-27T08:13:09.915Z,10.59
2023-04-27T08:15:37.433Z,10.50
2023-04-27T08:18:04.520Z,10.42
2023-04-27T08:20:32.838Z,10.32
2023-04-27T08:22:59.752Z,10.21
2023-04-27T08:25:27.022Z,10.12
2023-04-27T08:28:00.189Z,10.04
2023-04-27T08:30:38.579Z,9.96
2023-04-27T08:33:15.923Z,9.87
2023-04-27T08:35:43.165Z,9.77
2023-04-27T08:38:11.196Z,9.69
2023-04-27T08:40:44.753Z,9.62
2023-04-27T08:43:33.418Z,9.56
2023-04-27T08:46:04.453Z,9.52
2023-04-27T08:48:32.865Z,9.49
2023-04-27T08:51:00.143Z,9.41
2023-04-27T08:53:31.190Z,9.34
2023-04-27T08:55:58.468Z,9.28
2023-04-27T08:58:42.370Z,9.22
2023-04-27T09:01:12.878Z,9.18
2023-04-27T09:03:40.121Z,9.18
2023-04-27T09:06:09.920Z,9.19
2023-04-27T09:08:48.539Z,9.20
2023-04-27T09:11:16.838Z,9.22
2023-04-27T09:13:45.658Z,9.22
2023-04-27T09:16:16.321Z,9.25
2023-04-27T09:18:43.981Z,9.29
2023-04-27T09:21:12.947Z,9.28
2023-04-27T09:23:46.581Z,9.28
2023-04-27T09:26:22.463Z,9.30
2023-04-27T09:28:53.070Z,9.30
2023-04-27T09:31:21.987Z,9.33
2023-04-27T09:33:55.109Z,9.36
2023-04-27T09:36:22.066Z,9.37
2023-04-27T09:38:49.947Z,9.36
2023-04-27T09:41:17.075Z,9.39
2023-04-27T09:43:47.586Z,9.41
2023-04-27T09:46:15.155Z,9.42
2023-04-27T09:48:42.942Z,9.40
2023-04-27T09:51:09.884Z,9.40
2023-04-27T09:53:45.208Z,9.44
2023-04-27T09:56:30.909Z,9.45
2023-04-27T09:59:18.112Z,9.45
2023-04-27T10:01:55.900Z,9.46
2023-04-27T10:04:53.523Z,9.47
2023-04-27T10:07:20.861Z,9.46
2023-04-27T10:09:49.271Z,9.46
2023-04-27T10:12:33.278Z,9.49
2023-04-27T10:15:01.130Z,9.51
2023-04-27T10:17:33.432Z,9.49
2023-04-27T10:20:03.548Z,9.40
2023-04-27T10:22:59.969Z,9.34
2023-04-27T10:25:52.876Z,9.27
2023-04-27T10:28:29.592Z,9.20
2023-04-27T10:30:57.620Z,9.14
2023-04-27T10:33:48.969Z,9.12
2023-04-27T10:36:40.497Z,9.13
2023-04-27T10:39:32.656Z,9.16
2023-04-27T10:42:03.185Z,9.19
2023-04-27T10:44:31.353Z,9.19
2023-04-27T10:47:00.018Z,9.20
2023-04-27T10:49:30.543Z,9.23
2023-04-27T10:51:58.583Z,9.26
2023-04-27T10:54:33.785Z,9.30
2023-04-27T10:57:10.979Z,9.33
2023-04-27T10:59:49.934Z,9.32
2023-04-27T11:02:17.448Z,9.31
2023-04-27T11:04:44.444Z,9.35
2023-04-27T11:07:11.821Z,9.43
2023-04-27T11:09:39.664Z,9.55
2023-04-27T11:12:07.968Z,9.73
2023-04-27T11:14:37.886Z,9.90
2023-04-27T11:17:05.055Z,9.97
2023-04-27T11:19:32.366Z,10.00
2023-04-27T11:22:06.490Z,10.00
2023-04-27T11:24:33.612Z,9.92
2023-04-27T11:27:00.722Z,9.85
2023-04-27T11:29:37.810Z,9.89
2023-04-27T11:32:05.087Z,9.88
2023-04-27T11:34:37.052Z,9.78
2023-04-27T11:39:38.932Z,9.57
2023-04-27T11:42:22.552Z,9.53
2023-04-27T11:44:53.949Z,9.52
2023-04-27T11:47:22.674Z,9.52
2023-04-27T11:49:50.156Z,9.53
2023-04-27T11:52:17.088Z,9.55
2023-04-27T11:54:53.583Z,9.57
2023-04-27T11:57:30.542Z,9.57
2023-04-27T12:00:00.430Z,9.56
2023-04-27T12:02:27.999Z,9.55
2023-04-27T12:04:55.353Z,9.59
2023-04-27T12:07:22.398Z,9.56
2023-04-27T12:09:50.089Z,9.51
2023-04-27T12:12:18.540Z,9.49
2023-04-27T12:14:46.080Z,9.53
2023-04-27T12:17:13.407Z,9.57
2023-04-27T12:19:40.457Z,9.57
